sensor_id;sensor_type;location;lat;lon;timestamp;P1;durP1;ratioP1;P2;durP2;ratioP2
23802;SDS011;12082;51.786;6.018;2022-08-30T00:00:30;10.23;;;7.53;;
23802;SDS011;12082;51.786;6.018;2022-08-30T00:03:15;9.83;;;7.93;;
23802;SDS011;12082;51.786;6.018;2022-08-30T00:05:41;13.77;;;8.07;;
23802;SDS011;12082;51.786;6.018;2022-08-30T00:08:07;9.00;;;7.93;;
23802;SDS011;12082;51.786;6.018;2022-08-30T00:10:33;9.27;;;7.83;;
23802;SDS011;12082;51.786;6.018;2022-08-30T00:12:59;9.33;;;8.43;;
23802;SDS011;12082;51.786;6.018;2022-08-30T00:15:25;9.27;;;7.73;;
23802;SDS011;12082;51.786;6.018;2022-08-30T00:17:51;9.60;;;7.77;;
23802;SDS011;12082;51.786;6.018;2022-08-30T00:20:18;9.47;;;7.73;;
23802;SDS011;12082;51.786;6.018;2022-08-30T00:22:46;7.73;;;6.97;;
23802;SDS011;12082;51.786;6.018;2022-08-30T00:25:13;8.00;;;6.67;;
23802;SDS011;12082;51.786;6.018;2022-08-30T00:27:39;9.40;;;6.83;;
23802;SDS011;12082;51.786;6.018;2022-08-30T00:30:06;9.53;;;7.50;;
23802;SDS011;12082;51.786;6.018;2022-08-30T00:32:32;16.20;;;7.60;;
23802;SDS011;12082;51.786;6.018;2022-08-30T00:34:58;11.43;;;7.20;;
23802;SDS011;12082;51.786;6.018;2022-08-30T00:37:24;7.70;;;6.80;;
23802;SDS011;12082;51.786;6.018;2022-08-30T00:39:50;8.97;;;7.33;;
23802;SDS011;12082;51.786;6.018;2022-08-30T00:42:17;10.00;;;7.33;;
23802;SDS011;12082;51.786;6.018;2022-08-30T00:44:43;8.37;;;7.10;;
23802;SDS011;12082;51.786;6.018;2022-08-30T00:47:09;7.97;;;7.20;;
23802;SDS011;12082;51.786;6.018;2022-08-30T00:49:36;10.60;;;7.10;;
23802;SDS011;12082;51.786;6.018;2022-08-30T00:52:03;9.40;;;7.13;;
23802;SDS011;12082;51.786;6.018;2022-08-30T00:54:31;8.73;;;6.77;;
23802;SDS011;12082;51.786;6.018;2022-08-30T00:57:00;7.80;;;7.03;;
23802;SDS011;12082;51.786;6.018;2022-08-30T00:59:26;8.57;;;7.77;;
23802;SDS011;12082;51.786;6.018;2022-08-30T01:01:53;10.43;;;7.47;;
23802;SDS011;12082;51.786;6.018;2022-08-30T01:04:19;13.57;;;7.87;;
23802;SDS011;12082;51.786;6.018;2022-08-30T01:06:48;10.53;;;7.80;;
23802;SDS011;12082;51.786;6.018;2022-08-30T01:09:13;13.47;;;7.70;;
23802;SDS011;12082;51.786;6.018;2022-08-30T01:11:40;7.40;;;6.60;;
23802;SDS011;12082;51.786;6.018;2022-08-30T01:14:09;7.50;;;6.80;;
23802;SDS011;12082;51.786;6.018;2022-08-30T01:16:35;7.87;;;7.07;;
23802;SDS011;12082;51.786;6.018;2022-08-30T01:19:03;10.77;;;6.87;;
23802;SDS011;12082;51.786;6.018;2022-08-30T01:21:38;8.03;;;6.80;;
23802;SDS011;12082;51.786;6.018;2022-08-30T01:24:19;10.43;;;7.30;;
23802;SDS011;12082;51.786;6.018;2022-08-30T01:26:46;8.80;;;7.83;;
23802;SDS011;12082;51.786;6.018;2022-08-30T01:29:12;9.17;;;7.73;;
23802;SDS011;12082;51.786;6.018;2022-08-30T01:31:43;7.93;;;6.80;;
23802;SDS011;12082;51.786;6.018;2022-08-30T01:34:10;9.10;;;7.47;;
23802;SDS011;12082;51.786;6.018;2022-08-30T01:36:36;11.40;;;8.57;;
23802;SDS011;12082;51.786;6.018;2022-08-30T01:39:04;9.47;;;8.13;;
23802;SDS011;12082;51.786;6.018;2022-08-30T01:41:32;7.90;;;7.00;;
23802;SDS011;12082;51.786;6.018;2022-08-30T01:44:00;7.80;;;7.00;;
23802;SDS011;12082;51.786;6.018;2022-08-30T01:46:31;8.73;;;7.53;;
23802;SDS011;12082;51.786;6.018;2022-08-30T01:49:01;10.17;;;8.17;;
23802;SDS011;12082;51.786;6.018;2022-08-30T01:51:29;11.10;;;7.97;;
23802;SDS011;12082;51.786;6.018;2022-08-30T01:53:55;13.13;;;8.20;;
23802;SDS011;12082;51.786;6.018;2022-08-30T01:56:22;9.30;;;8.30;;
23802;SDS011;12082;51.786;6.018;2022-08-30T01:58:48;15.00;;;8.20;;
23802;SDS011;12082;51.786;6.018;2022-08-30T02:01:15;9.83;;;8.83;;
23802;SDS011;12082;51.786;6.018;2022-08-30T02:03:43;13.03;;;8.67;;
23802;SDS011;12082;51.786;6.018;2022-08-30T02:06:10;9.70;;;8.70;;
23802;SDS011;12082;51.786;6.018;2022-08-30T02:08:38;11.83;;;8.53;;
23802;SDS011;12082;51.786;6.018;2022-08-30T02:11:04;10.80;;;8.80;;
23802;SDS011;12082;51.786;6.018;2022-08-30T02:13:31;11.40;;;8.40;;
23802;SDS011;12082;51.786;6.018;2022-08-30T02:15:57;9.17;;;8.17;;
23802;SDS011;12082;51.786;6.018;2022-08-30T02:18:23;9.33;;;7.93;;
23802;SDS011;12082;51.786;6.018;2022-08-30T02:20:50;10.33;;;8.40;;
23802;SDS011;12082;51.786;6.018;2022-08-30T02:23:16;13.90;;;8.47;;
23802;SDS011;12082;51.786;6.018;2022-08-30T02:25:42;9.43;;;8.43;;
23802;SDS011;12082;51.786;6.018;2022-08-30T02:28:08;10.70;;;8.70;;
23802;SDS011;12082;51.786;6.018;2022-08-30T02:30:34;14.50;;;9.13;;
23802;SDS011;12082;51.786;6.018;2022-08-30T02:33:00;11.63;;;9.00;;
23802;SDS011;12082;51.786;6.018;2022-08-30T02:35:26;10.60;;;9.50;;
23802;SDS011;12082;51.786;6.018;2022-08-30T02:37:52;12.60;;;8.50;;
23802;SDS011;12082;51.786;6.018;2022-08-30T02:40:18;11.57;;;8.23;;
23802;SDS011;12082;51.786;6.018;2022-08-30T02:42:45;13.03;;;10.53;;
23802;SDS011;12082;51.786;6.018;2022-08-30T02:45:10;12.30;;;9.50;;
23802;SDS011;12082;51.786;6.018;2022-08-30T02:47:36;11.60;;;9.40;;
23802;SDS011;12082;51.786;6.018;2022-08-30T02:50:05;13.57;;;10.70;;
23802;SDS011;12082;51.786;6.018;2022-08-30T02:52:31;11.40;;;9.73;;
23802;SDS011;12082;51.786;6.018;2022-08-30T02:54:57;13.27;;;10.17;;
23802;SDS011;12082;51.786;6.018;2022-08-30T02:57:23;11.30;;;9.97;;
23802;SDS011;12082;51.786;6.018;2022-08-30T02:59:49;11.80;;;10.20;;
23802;SDS011;12082;51.786;6.018;2022-08-30T03:02:15;18.17;;;11.37;;
23802;SDS011;12082;51.786;6.018;2022-08-30T03:04:40;11.10;;;9.97;;
23802;SDS011;12082;51.786;6.018;2022-08-30T03:07:08;12.83;;;9.83;;
23802;SDS011;12082;51.786;6.018;2022-08-30T03:09:36;13.67;;;11.10;;
23802;SDS011;12082;51.786;6.018;2022-08-30T03:12:02;13.37;;;11.30;;
23802;SDS011;12082;51.786;6.018;2022-08-30T03:14:29;15.30;;;10.73;;
23802;SDS011;12082;51.786;6.018;2022-08-30T03:16:56;12.47;;;10.03;;
23802;SDS011;12082;51.786;6.018;2022-08-30T03:19:22;19.17;;;11.87;;
23802;SDS011;12082;51.786;6.018;2022-08-30T03:21:49;16.13;;;12.60;;
23802;SDS011;12082;51.786;6.018;2022-08-30T03:24:15;14.87;;;11.93;;
23802;SDS011;12082;51.786;6.018;2022-08-30T03:26:40;12.37;;;10.57;;
23802;SDS011;12082;51.786;6.018;2022-08-30T03:29:06;17.10;;;14.07;;
23802;SDS011;12082;51.786;6.018;2022-08-30T03:31:31;17.13;;;12.37;;
23802;SDS011;12082;51.786;6.018;2022-08-30T03:33:57;17.40;;;14.13;;
23802;SDS011;12082;51.786;6.018;2022-08-30T03:36:23;18.13;;;13.50;;
23802;SDS011;12082;51.786;6.018;2022-08-30T03:38:48;16.40;;;12.13;;
23802;SDS011;12082;51.786;6.018;2022-08-30T03:41:14;14.23;;;11.77;;
23802;SDS011;12082;51.786;6.018;2022-08-30T03:43:41;16.03;;;12.63;;
23802;SDS011;12082;51.786;6.018;2022-08-30T03:46:07;16.37;;;13.37;;
23802;SDS011;12082;51.786;6.018;2022-08-30T03:48:33;15.73;;;12.73;;
23802;SDS011;12082;51.786;6.018;2022-08-30T03:51:00;16.10;;;12.07;;
23802;SDS011;12082;51.786;6.018;2022-08-30T03:53:25;15.27;;;12.60;;
23802;SDS011;12082;51.786;6.018;2022-08-30T03:55:51;17.73;;;12.70;;
23802;SDS011;12082;51.786;6.018;2022-08-30T03:58:16;15.47;;;12.70;;
23802;SDS011;12082;51.786;6.018;2022-08-30T04:00:42;21.07;;;13.27;;
23802;SDS011;12082;51.786;6.018;2022-08-30T04:03:07;17.90;;;13.53;;
23802;SDS011;12082;51.786;6.018;2022-08-30T04:05:33;16.13;;;12.57;;
23802;SDS011;12082;51.786;6.018;2022-08-30T04:07:59;18.37;;;13.83;;
23802;SDS011;12082;51.786;6.018;2022-08-30T04:10:25;16.40;;;12.97;;
23802;SDS011;12082;51.786;6.018;2022-08-30T04:12:51;21.57;;;13.40;;
23802;SDS011;12082;51.786;6.018;2022-08-30T04:15:17;15.90;;;12.17;;
23802;SDS011;12082;51.786;6.018;2022-08-30T04:17:43;15.80;;;12.17;;
23802;SDS011;12082;51.786;6.018;2022-08-30T04:20:09;15.33;;;11.77;;
23802;SDS011;12082;51.786;6.018;2022-08-30T04:22:35;15.60;;;11.30;;
23802;SDS011;12082;51.786;6.018;2022-08-30T04:25:01;17.40;;;12.60;;
23802;SDS011;12082;51.786;6.018;2022-08-30T04:27:27;18.23;;;13.07;;
23802;SDS011;12082;51.786;6.018;2022-08-30T04:29:53;16.67;;;12.50;;
23802;SDS011;12082;51.786;6.018;2022-08-30T04:32:20;18.00;;;12.77;;
23802;SDS011;12082;51.786;6.018;2022-08-30T04:34:46;17.73;;;12.30;;
23802;SDS011;12082;51.786;6.018;2022-08-30T04:37:12;15.70;;;12.20;;
23802;SDS011;12082;51.786;6.018;2022-08-30T04:39:38;15.77;;;12.70;;
23802;SDS011;12082;51.786;6.018;2022-08-30T04:42:06;15.87;;;12.40;;
23802;SDS011;12082;51.786;6.018;2022-08-30T04:44:33;18.37;;;13.23;;
23802;SDS011;12082;51.786;6.018;2022-08-30T04:46:59;17.33;;;13.23;;
23802;SDS011;12082;51.786;6.018;2022-08-30T04:49:25;19.10;;;13.80;;
23802;SDS011;12082;51.786;6.018;2022-08-30T04:51:50;17.47;;;13.70;;
23802;SDS011;12082;51.786;6.018;2022-08-30T04:54:16;16.63;;;13.53;;
23802;SDS011;12082;51.786;6.018;2022-08-30T04:56:41;15.93;;;13.53;;
23802;SDS011;12082;51.786;6.018;2022-08-30T04:59:07;15.40;;;12.90;;
23802;SDS011;12082;51.786;6.018;2022-08-30T05:01:33;18.27;;;13.37;;
23802;SDS011;12082;51.786;6.018;2022-08-30T05:03:59;18.40;;;14.37;;
23802;SDS011;12082;51.786;6.018;2022-08-30T05:06:26;20.13;;;15.80;;
23802;SDS011;12082;51.786;6.018;2022-08-30T05:08:53;18.60;;;16.27;;
23802;SDS011;12082;51.786;6.018;2022-08-30T05:11:19;18.40;;;16.40;;
23802;SDS011;12082;51.786;6.018;2022-08-30T05:13:46;20.73;;;17.10;;
23802;SDS011;12082;51.786;6.018;2022-08-30T05:16:12;20.30;;;17.10;;
23802;SDS011;12082;51.786;6.018;2022-08-30T05:18:42;18.90;;;17.00;;
23802;SDS011;12082;51.786;6.018;2022-08-30T05:21:19;22.03;;;19.93;;
23802;SDS011;12082;51.786;6.018;2022-08-30T05:23:51;23.70;;;21.60;;
23802;SDS011;12082;51.786;6.018;2022-08-30T05:26:22;27.30;;;24.77;;
23802;SDS011;12082;51.786;6.018;2022-08-30T05:28:50;27.30;;;24.70;;
23802;SDS011;12082;51.786;6.018;2022-08-30T05:31:17;29.93;;;27.33;;
23802;SDS011;12082;51.786;6.018;2022-08-30T05:33:45;37.00;;;34.03;;
23802;SDS011;12082;51.786;6.018;2022-08-30T05:36:12;30.87;;;28.17;;
23802;SDS011;12082;51.786;6.018;2022-08-30T05:38:39;32.80;;;29.93;;
23802;SDS011;12082;51.786;6.018;2022-08-30T05:41:05;28.80;;;26.47;;
23802;SDS011;12082;51.786;6.018;2022-08-30T05:43:31;24.07;;;21.60;;
23802;SDS011;12082;51.786;6.018;2022-08-30T05:46:04;20.83;;;18.23;;
23802;SDS011;12082;51.786;6.018;2022-08-30T05:48:32;16.97;;;14.37;;
23802;SDS011;12082;51.786;6.018;2022-08-30T05:53:29;18.73;;;15.13;;
23802;SDS011;12082;51.786;6.018;2022-08-30T05:55:54;16.83;;;15.00;;
23802;SDS011;12082;51.786;6.018;2022-08-30T05:58:20;15.00;;;13.27;;
23802;SDS011;12082;51.786;6.018;2022-08-30T06:00:45;17.60;;;14.17;;
23802;SDS011;12082;51.786;6.018;2022-08-30T06:03:11;20.63;;;17.20;;
23802;SDS011;12082;51.786;6.018;2022-08-30T06:05:37;17.77;;;15.57;;
23802;SDS011;12082;51.786;6.018;2022-08-30T06:08:02;24.23;;;16.27;;
23802;SDS011;12082;51.786;6.018;2022-08-30T06:10:28;21.47;;;18.60;;
23802;SDS011;12082;51.786;6.018;2022-08-30T06:12:54;24.07;;;21.73;;
23802;SDS011;12082;51.786;6.018;2022-08-30T06:15:20;27.97;;;25.80;;
23802;SDS011;12082;51.786;6.018;2022-08-30T06:17:46;16.43;;;14.93;;
23802;SDS011;12082;51.786;6.018;2022-08-30T06:20:12;20.10;;;18.50;;
23802;SDS011;12082;51.786;6.018;2022-08-30T06:22:38;25.27;;;23.43;;
23802;SDS011;12082;51.786;6.018;2022-08-30T06:25:04;31.20;;;29.23;;
23802;SDS011;12082;51.786;6.018;2022-08-30T06:27:30;17.73;;;16.37;;
23802;SDS011;12082;51.786;6.018;2022-08-30T06:29:56;10.17;;;8.90;;
23802;SDS011;12082;51.786;6.018;2022-08-30T06:32:22;12.70;;;10.50;;
23802;SDS011;12082;51.786;6.018;2022-08-30T06:34:47;9.60;;;8.77;;
23802;SDS011;12082;51.786;6.018;2022-08-30T06:37:13;10.30;;;9.50;;
23802;SDS011;12082;51.786;6.018;2022-08-30T06:39:39;9.37;;;8.53;;
23802;SDS011;12082;51.786;6.018;2022-08-30T06:42:04;10.13;;;9.27;;
23802;SDS011;12082;51.786;6.018;2022-08-30T06:44:30;8.60;;;7.83;;
23802;SDS011;12082;51.786;6.018;2022-08-30T06:46:55;8.80;;;8.07;;
23802;SDS011;12082;51.786;6.018;2022-08-30T06:49:21;8.73;;;7.93;;
23802;SDS011;12082;51.786;6.018;2022-08-30T06:51:46;11.10;;;8.57;;
23802;SDS011;12082;51.786;6.018;2022-08-30T06:54:12;10.20;;;9.13;;
23802;SDS011;12082;51.786;6.018;2022-08-30T06:56:38;9.63;;;8.83;;
23802;SDS011;12082;51.786;6.018;2022-08-30T06:59:04;8.40;;;7.80;;
23802;SDS011;12082;51.786;6.018;2022-08-30T07:01:30;10.13;;;9.30;;
23802;SDS011;12082;51.786;6.018;2022-08-30T07:03:56;12.10;;;11.33;;
23802;SDS011;12082;51.786;6.018;2022-08-30T07:06:23;10.70;;;9.97;;
23802;SDS011;12082;51.786;6.018;2022-08-30T07:08:49;13.07;;;12.10;;
23802;SDS011;12082;51.786;6.018;2022-08-30T07:11:30;15.60;;;14.47;;
23802;SDS011;12082;51.786;6.018;2022-08-30T07:14:01;14.40;;;13.43;;
23802;SDS011;12082;51.786;6.018;2022-08-30T07:16:28;15.13;;;14.13;;
23802;SDS011;12082;51.786;6.018;2022-08-30T07:18:54;7.30;;;5.30;;
23802;SDS011;12082;51.786;6.018;2022-08-30T07:23:53;6.60;;;5.90;;
23802;SDS011;12082;51.786;6.018;2022-08-30T07:26:21;6.67;;;5.43;;
23802;SDS011;12082;51.786;6.018;2022-08-30T07:28:49;4.63;;;4.20;;
23802;SDS011;12082;51.786;6.018;2022-08-30T07:31:15;4.97;;;4.57;;
23802;SDS011;12082;51.786;6.018;2022-08-30T07:33:42;7.13;;;6.53;;
23802;SDS011;12082;51.786;6.018;2022-08-30T07:36:08;7.90;;;7.47;;
23802;SDS011;12082;51.786;6.018;2022-08-30T07:38:34;6.63;;;5.97;;
23802;SDS011;12082;51.786;6.018;2022-08-30T07:41:00;5.83;;;5.27;;
23802;SDS011;12082;51.786;6.018;2022-08-30T07:43:26;5.80;;;3.97;;
23802;SDS011;12082;51.786;6.018;2022-08-30T07:45:52;4.07;;;3.77;;
23802;SDS011;12082;51.786;6.018;2022-08-30T07:48:18;4.37;;;3.60;;
23802;SDS011;12082;51.786;6.018;2022-08-30T07:50:44;3.67;;;3.40;;
23802;SDS011;12082;51.786;6.018;2022-08-30T07:53:11;4.43;;;4.03;;
23802;SDS011;12082;51.786;6.018;2022-08-30T07:55:37;4.03;;;3.10;;
23802;SDS011;12082;51.786;6.018;2022-08-30T07:58:03;3.20;;;2.70;;
23802;SDS011;12082;51.786;6.018;2022-08-30T08:00:29;4.40;;;2.37;;
23802;SDS011;12082;51.786;6.018;2022-08-30T08:02:54;2.93;;;2.17;;
23802;SDS011;12082;51.786;6.018;2022-08-30T08:05:20;7.67;;;2.50;;
23802;SDS011;12082;51.786;6.018;2022-08-30T08:07:46;2.47;;;2.23;;
23802;SDS011;12082;51.786;6.018;2022-08-30T08:10:11;4.83;;;1.90;;
23802;SDS011;12082;51.786;6.018;2022-08-30T08:12:37;2.73;;;2.07;;
23802;SDS011;12082;51.786;6.018;2022-08-30T08:15:04;6.03;;;2.53;;
23802;SDS011;12082;51.786;6.018;2022-08-30T08:17:30;5.00;;;1.83;;
23802;SDS011;12082;51.786;6.018;2022-08-30T08:19:55;3.70;;;1.87;;
23802;SDS011;12082;51.786;6.018;2022-08-30T08:22:21;4.17;;;1.83;;
23802;SDS011;12082;51.786;6.018;2022-08-30T08:24:47;3.73;;;2.20;;
23802;SDS011;12082;51.786;6.018;2022-08-30T08:27:13;4.17;;;3.87;;
23802;SDS011;12082;51.786;6.018;2022-08-30T08:29:39;4.43;;;4.13;;
23802;SDS011;12082;51.786;6.018;2022-08-30T08:32:04;5.50;;;5.20;;
23802;SDS011;12082;51.786;6.018;2022-08-30T08:34:30;5.73;;;5.10;;
23802;SDS011;12082;51.786;6.018;2022-08-30T08:36:56;4.00;;;3.43;;
23802;SDS011;12082;51.786;6.018;2022-08-30T08:39:21;6.60;;;2.60;;
23802;SDS011;12082;51.786;6.018;2022-08-30T08:44:51;6.07;;;3.33;;
23802;SDS011;12082;51.786;6.018;2022-08-30T08:47:28;5.50;;;5.07;;
23802;SDS011;12082;51.786;6.018;2022-08-30T08:50:07;5.33;;;5.03;;
23802;SDS011;12082;51.786;6.018;2022-08-30T08:52:54;5.60;;;5.20;;
23802;SDS011;12082;51.786;6.018;2022-08-30T08:55:46;5.80;;;5.40;;
23802;SDS011;12082;51.786;6.018;2022-08-30T08:58:24;6.30;;;5.90;;
23802;SDS011;12082;51.786;6.018;2022-08-30T09:00:52;8.00;;;5.57;;
23802;SDS011;12082;51.786;6.018;2022-08-30T09:03:20;6.07;;;5.77;;
23802;SDS011;12082;51.786;6.018;2022-08-30T09:05:48;6.00;;;5.40;;
23802;SDS011;12082;51.786;6.018;2022-08-30T09:08:16;6.00;;;5.57;;
23802;SDS011;12082;51.786;6.018;2022-08-30T09:10:46;5.57;;;5.23;;
23802;SDS011;12082;51.786;6.018;2022-08-30T09:13:19;6.20;;;5.90;;
23802;SDS011;12082;51.786;6.018;2022-08-30T09:15:45;6.27;;;5.97;;
23802;SDS011;12082;51.786;6.018;2022-08-30T09:18:11;6.80;;;6.40;;
23802;SDS011;12082;51.786;6.018;2022-08-30T09:20:38;5.77;;;5.40;;
23802;SDS011;12082;51.786;6.018;2022-08-30T09:25:56;6.70;;;6.17;;
23802;SDS011;12082;51.786;6.018;2022-08-30T09:28:29;6.40;;;5.90;;
23802;SDS011;12082;51.786;6.018;2022-08-30T09:31:23;7.03;;;5.30;;
23802;SDS011;12082;51.786;6.018;2022-08-30T09:34:14;6.30;;;5.80;;
23802;SDS011;12082;51.786;6.018;2022-08-30T09:36:46;5.60;;;5.27;;
23802;SDS011;12082;51.786;6.018;2022-08-30T09:39:28;6.97;;;4.67;;
23802;SDS011;12082;51.786;6.018;2022-08-30T09:42:17;9.57;;;4.53;;
23802;SDS011;12082;51.786;6.018;2022-08-30T09:44:45;7.07;;;4.90;;
23802;SDS011;12082;51.786;6.018;2022-08-30T09:47:17;6.83;;;3.73;;
23802;SDS011;12082;51.786;6.018;2022-08-30T09:49:44;5.27;;;3.80;;
23802;SDS011;12082;51.786;6.018;2022-08-30T09:54:51;4.63;;;3.57;;
23802;SDS011;12082;51.786;6.018;2022-08-30T09:57:37;3.00;;;2.80;;
23802;SDS011;12082;51.786;6.018;2022-08-30T10:00:16;4.03;;;3.60;;
23802;SDS011;12082;51.786;6.018;2022-08-30T10:05:50;6.27;;;3.17;;
23802;SDS011;12082;51.786;6.018;2022-08-30T10:11:37;3.37;;;3.07;;
23802;SDS011;12082;51.786;6.018;2022-08-30T10:14:18;2.60;;;2.40;;
23802;SDS011;12082;51.786;6.018;2022-08-30T10:16:57;3.90;;;3.60;;
23802;SDS011;12082;51.786;6.018;2022-08-30T10:24:58;4.37;;;3.93;;
23802;SDS011;12082;51.786;6.018;2022-08-30T10:27:41;3.13;;;2.80;;
23802;SDS011;12082;51.786;6.018;2022-08-30T10:30:09;3.30;;;3.10;;
23802;SDS011;12082;51.786;6.018;2022-08-30T10:35:20;5.27;;;3.00;;
23802;SDS011;12082;51.786;6.018;2022-08-30T10:37:57;4.37;;;3.27;;
23802;SDS011;12082;51.786;6.018;2022-08-30T10:40:36;3.87;;;3.10;;
23802;SDS011;12082;51.786;6.018;2022-08-30T10:46:04;3.30;;;2.90;;
23802;SDS011;12082;51.786;6.018;2022-08-30T10:48:40;3.97;;;3.43;;
23802;SDS011;12082;51.786;6.018;2022-08-30T10:51:10;4.10;;;2.90;;
23802;SDS011;12082;51.786;6.018;2022-08-30T10:54:03;5.23;;;3.03;;
23802;SDS011;12082;51.786;6.018;2022-08-30T10:56:39;5.10;;;2.60;;
23802;SDS011;12082;51.786;6.018;2022-08-30T10:59:07;4.00;;;2.53;;
23802;SDS011;12082;51.786;6.018;2022-08-30T11:04:48;5.07;;;2.37;;
23802;SDS011;12082;51.786;6.018;2022-08-30T11:07:43;2.90;;;2.70;;
23802;SDS011;12082;51.786;6.018;2022-08-30T11:10:16;5.57;;;3.67;;
23802;SDS011;12082;51.786;6.018;2022-08-30T11:13:01;3.37;;;3.07;;
23802;SDS011;12082;51.786;6.018;2022-08-30T11:16:07;7.77;;;4.30;;
23802;SDS011;12082;51.786;6.018;2022-08-30T11:18:49;6.10;;;3.97;;
23802;SDS011;12082;51.786;6.018;2022-08-30T11:24:04;3.40;;;3.17;;
23802;SDS011;12082;51.786;6.018;2022-08-30T11:29:09;6.37;;;3.87;;
23802;SDS011;12082;51.786;6.018;2022-08-30T11:42:51;3.33;;;2.73;;
23802;SDS011;12082;51.786;6.018;2022-08-30T11:47:54;3.40;;;3.17;;
23802;SDS011;12082;51.786;6.018;2022-08-30T11:50:25;3.93;;;3.10;;
23802;SDS011;12082;51.786;6.018;2022-08-30T11:53:13;4.53;;;2.80;;
23802;SDS011;12082;51.786;6.018;2022-08-30T12:04:02;3.83;;;2.70;;
23802;SDS011;12082;51.786;6.018;2022-08-30T12:14:55;5.57;;;2.33;;
23802;SDS011;12082;51.786;6.018;2022-08-30T12:20:15;1.83;;;1.73;;
23802;SDS011;12082;51.786;6.018;2022-08-30T12:22:45;4.37;;;2.70;;
23802;SDS011;12082;51.786;6.018;2022-08-30T12:25:12;4.17;;;1.93;;
23802;SDS011;12082;51.786;6.018;2022-08-30T12:27:42;2.60;;;1.77;;
23802;SDS011;12082;51.786;6.018;2022-08-30T12:30:08;3.33;;;1.90;;
23802;SDS011;12082;51.786;6.018;2022-08-30T12:32:41;1.80;;;1.57;;
23802;SDS011;12082;51.786;6.018;2022-08-30T12:35:16;1.50;;;1.40;;
23802;SDS011;12082;51.786;6.018;2022-08-30T12:37:57;3.43;;;2.10;;
23802;SDS011;12082;51.786;6.018;2022-08-30T12:40:28;2.17;;;1.60;;
23802;SDS011;12082;51.786;6.018;2022-08-30T12:45:31;4.30;;;1.70;;
23802;SDS011;12082;51.786;6.018;2022-08-30T12:48:07;2.20;;;2.00;;
23802;SDS011;12082;51.786;6.018;2022-08-30T12:50:43;2.07;;;1.87;;
23802;SDS011;12082;51.786;6.018;2022-08-30T12:53:40;2.43;;;1.77;;
23802;SDS011;12082;51.786;6.018;2022-08-30T12:56:08;3.83;;;2.07;;
23802;SDS011;12082;51.786;6.018;2022-08-30T12:58:40;4.67;;;2.00;;
23802;SDS011;12082;51.786;6.018;2022-08-30T13:01:27;6.13;;;2.27;;
23802;SDS011;12082;51.786;6.018;2022-08-30T13:06:48;5.10;;;1.73;;
23802;SDS011;12082;51.786;6.018;2022-08-30T13:09:26;2.17;;;1.77;;
23802;SDS011;12082;51.786;6.018;2022-08-30T13:11:58;2.43;;;2.23;;
23802;SDS011;12082;51.786;6.018;2022-08-30T13:22:24;2.30;;;2.10;;
23802;SDS011;12082;51.786;6.018;2022-08-30T13:24:54;2.40;;;2.17;;
23802;SDS011;12082;51.786;6.018;2022-08-30T13:27:20;4.37;;;2.50;;
23802;SDS011;12082;51.786;6.018;2022-08-30T13:29:47;4.03;;;2.20;;
23802;SDS011;12082;51.786;6.018;2022-08-30T13:32:13;3.30;;;2.37;;
23802;SDS011;12082;51.786;6.018;2022-08-30T13:34:38;2.97;;;2.10;;
23802;SDS011;12082;51.786;6.018;2022-08-30T13:37:05;7.07;;;3.20;;
23802;SDS011;12082;51.786;6.018;2022-08-30T13:39:32;6.90;;;3.43;;
23802;SDS011;12082;51.786;6.018;2022-08-30T13:41:58;8.13;;;3.23;;
23802;SDS011;12082;51.786;6.018;2022-08-30T13:44:24;4.10;;;3.00;;
23802;SDS011;12082;51.786;6.018;2022-08-30T13:46:50;8.20;;;3.20;;
23802;SDS011;12082;51.786;6.018;2022-08-30T13:49:19;3.10;;;2.80;;
23802;SDS011;12082;51.786;6.018;2022-08-30T13:51:53;3.13;;;2.93;;
23802;SDS011;12082;51.786;6.018;2022-08-30T13:54:19;3.60;;;3.30;;
23802;SDS011;12082;51.786;6.018;2022-08-30T13:56:50;5.90;;;3.13;;
23802;SDS011;12082;51.786;6.018;2022-08-30T13:59:17;6.23;;;3.33;;
23802;SDS011;12082;51.786;6.018;2022-08-30T14:01:43;3.57;;;3.27;;
23802;SDS011;12082;51.786;6.018;2022-08-30T14:04:09;2.53;;;2.40;;
23802;SDS011;12082;51.786;6.018;2022-08-30T14:06:34;4.67;;;3.73;;
23802;SDS011;12082;51.786;6.018;2022-08-30T14:09:00;4.13;;;3.70;;
23802;SDS011;12082;51.786;6.018;2022-08-30T14:11:29;3.10;;;2.90;;
23802;SDS011;12082;51.786;6.018;2022-08-30T14:13:55;4.73;;;3.60;;
23802;SDS011;12082;51.786;6.018;2022-08-30T14:16:20;3.80;;;3.50;;
23802;SDS011;12082;51.786;6.018;2022-08-30T14:18:46;3.70;;;3.23;;
23802;SDS011;12082;51.786;6.018;2022-08-30T14:21:12;8.77;;;3.47;;
23802;SDS011;12082;51.786;6.018;2022-08-30T14:23:37;4.30;;;3.57;;
23802;SDS011;12082;51.786;6.018;2022-08-30T14:26:04;3.67;;;3.37;;
23802;SDS011;12082;51.786;6.018;2022-08-30T14:28:37;3.70;;;3.40;;
23802;SDS011;12082;51.786;6.018;2022-08-30T14:31:03;3.63;;;2.90;;
23802;SDS011;12082;51.786;6.018;2022-08-30T14:33:28;6.07;;;3.70;;
23802;SDS011;12082;51.786;6.018;2022-08-30T14:35:54;3.50;;;3.30;;
23802;SDS011;12082;51.786;6.018;2022-08-30T14:38:19;4.33;;;3.10;;
23802;SDS011;12082;51.786;6.018;2022-08-30T14:40:45;3.97;;;2.47;;
23802;SDS011;12082;51.786;6.018;2022-08-30T14:43:11;4.23;;;2.67;;
23802;SDS011;12082;51.786;6.018;2022-08-30T14:45:37;2.77;;;2.20;;
23802;SDS011;12082;51.786;6.018;2022-08-30T14:48:03;6.97;;;2.60;;
23802;SDS011;12082;51.786;6.018;2022-08-30T14:50:33;4.03;;;2.10;;
23802;SDS011;12082;51.786;6.018;2022-08-30T14:53:02;8.70;;;3.40;;
23802;SDS011;12082;51.786;6.018;2022-08-30T14:55:29;3.57;;;2.60;;
23802;SDS011;12082;51.786;6.018;2022-08-30T14:57:56;3.80;;;2.47;;
23802;SDS011;12082;51.786;6.018;2022-08-30T15:00:22;2.80;;;2.60;;
23802;SDS011;12082;51.786;6.018;2022-08-30T15:02:48;4.77;;;3.00;;
23802;SDS011;12082;51.786;6.018;2022-08-30T15:05:14;3.33;;;2.50;;
23802;SDS011;12082;51.786;6.018;2022-08-30T15:07:40;3.17;;;2.87;;
23802;SDS011;12082;51.786;6.018;2022-08-30T15:10:07;4.73;;;2.90;;
23802;SDS011;12082;51.786;6.018;2022-08-30T15:12:34;6.10;;;2.93;;
23802;SDS011;12082;51.786;6.018;2022-08-30T15:15:02;4.93;;;4.00;;
23802;SDS011;12082;51.786;6.018;2022-08-30T15:17:28;3.67;;;3.10;;
23802;SDS011;12082;51.786;6.018;2022-08-30T15:19:54;5.67;;;3.03;;
23802;SDS011;12082;51.786;6.018;2022-08-30T15:22:20;2.87;;;2.63;;
23802;SDS011;12082;51.786;6.018;2022-08-30T15:24:45;3.60;;;2.80;;
23802;SDS011;12082;51.786;6.018;2022-08-30T15:27:11;4.07;;;3.00;;
23802;SDS011;12082;51.786;6.018;2022-08-30T15:29:36;3.90;;;2.73;;
23802;SDS011;12082;51.786;6.018;2022-08-30T15:32:02;6.27;;;3.40;;
23802;SDS011;12082;51.786;6.018;2022-08-30T15:34:29;3.77;;;3.17;;
23802;SDS011;12082;51.786;6.018;2022-08-30T15:36:55;3.40;;;2.97;;
23802;SDS011;12082;51.786;6.018;2022-08-30T15:39:22;3.47;;;3.13;;
23802;SDS011;12082;51.786;6.018;2022-08-30T15:41:48;4.47;;;2.50;;
23802;SDS011;12082;51.786;6.018;2022-08-30T15:44:15;3.90;;;2.83;;
23802;SDS011;12082;51.786;6.018;2022-08-30T15:46:42;4.90;;;3.00;;
23802;SDS011;12082;51.786;6.018;2022-08-30T15:51:36;4.07;;;3.23;;
23802;SDS011;12082;51.786;6.018;2022-08-30T15:54:02;3.27;;;2.97;;
23802;SDS011;12082;51.786;6.018;2022-08-30T15:56:29;4.43;;;2.80;;
23802;SDS011;12082;51.786;6.018;2022-08-30T15:58:55;4.13;;;2.70;;
23802;SDS011;12082;51.786;6.018;2022-08-30T16:01:21;5.73;;;2.90;;
23802;SDS011;12082;51.786;6.018;2022-08-30T16:03:46;6.13;;;2.77;;
23802;SDS011;12082;51.786;6.018;2022-08-30T16:06:13;4.10;;;2.60;;
23802;SDS011;12082;51.786;6.018;2022-08-30T16:08:41;4.80;;;2.00;;
23802;SDS011;12082;51.786;6.018;2022-08-30T16:11:08;4.93;;;2.13;;
23802;SDS011;12082;51.786;6.018;2022-08-30T16:13:35;1.77;;;1.63;;